Time;durP1;ratioP1;P1;durP2;ratioP2;P2;SDS_P1;SDS_P2;PMS_P1;PMS_P2;Temp;Humidity;BMP_temperature;BMP_pressure;BME280_temperature;BME280_humidity;BME280_pressure;Samples;Min_cycle;Max_cycle;Signal;HPM_P1;HPM_P2
2022/09/13 00:02:03;;;;;;;10.52;1.60;;;;;;;11.06;100.00;100306.28;4969949;28;20035;-96
2022/09/13 00:04:29;;;;;;;6.65;1.00;;;;;;;11.05;100.00;100307.28;4946052;28;20085;-96
2022/09/13 00:06:56;;;;;;;10.27;1.38;;;;;;;11.04;100.00;100305.59;4960007;28;20038;-96
2022/09/13 00:09:22;;;;;;;7.03;1.95;;;;;;;11.04;100.00;100308.25;4959651;28;20074;-96
2022/09/13 00:11:48;;;;;;;4.68;1.73;;;;;;;11.04;100.00;100310.91;4938964;28;20424;-95
2022/09/13 00:14:14;;;;;;;5.45;1.38;;;;;;;11.01;100.00;100304.09;4932758;28;20035;-96
2022/09/13 00:16:40;;;;;;;8.82;1.30;;;;;;;10.96;100.00;100303.72;4953050;28;20014;-96
2022/09/13 00:19:07;;;;;;;5.57;1.33;;;;;;;10.91;100.00;100308.63;4945197;28;20023;-95
2022/09/13 00:21:34;;;;;;;5.28;1.25;;;;;;;10.87;100.00;100296.69;4959682;28;20019;-96
2022/09/13 00:24:07;;;;;;;5.78;1.20;;;;;;;10.83;100.00;100297.97;4945721;28;20031;-96
2022/09/13 00:26:45;;;;;;;6.05;1.73;;;;;;;10.77;100.00;100294.09;4991451;23;20050;-90
2022/09/13 00:29:14;;;;;;;4.45;1.63;;;;;;;10.78;100.00;100293.97;4942932;28;20502;-92
2022/09/13 00:31:40;;;;;;;3.60;1.40;;;;;;;10.71;100.00;100292.06;4931851;28;20046;-93
2022/09/13 00:34:14;;;;;;;5.55;1.55;;;;;;;10.65;100.00;100290.84;4942902;28;20058;-93
2022/09/13 00:36:43;;;;;;;4.28;1.20;;;;;;;10.66;100.00;100292.50;4931616;28;20125;-93
2022/09/13 00:39:10;;;;;;;4.03;1.02;;;;;;;10.67;100.00;100291.53;4944794;28;20038;-91
2022/09/13 00:41:37;;;;;;;5.97;1.58;;;;;;;10.66;100.00;100295.16;4944905;28;20133;-92
2022/09/13 00:44:05;;;;;;;7.45;1.60;;;;;;;10.61;100.00;100298.25;4952058;28;20034;-92
2022/09/13 00:46:39;;;;;;;5.68;2.20;;;;;;;10.61;100.00;100297.41;4940753;28;20037;-91
2022/09/13 00:49:29;;;;;;;3.60;1.48;;;;;;;10.49;100.00;100294.13;4956650;28;20034;-92
2022/09/13 00:52:00;;;;;;;8.00;1.48;;;;;;;10.52;100.00;100310.53;4935385;28;20038;-92
2022/09/13 00:54:51;;;;;;;12.27;1.25;;;;;;;10.49;100.00;100304.72;4956588;28;20509;-91
2022/09/13 00:57:19;;;;;;;9.80;1.50;;;;;;;10.45;100.00;100306.78;4946795;28;20064;-92
2022/09/13 00:59:55;;;;;;;3.50;1.40;;;;;;;10.40;100.00;100303.75;4956693;28;20027;-92
2022/09/13 01:02:27;;;;;;;6.13;1.25;;;;;;;10.42;100.00;100317.63;4947643;28;20030;-92
2022/09/13 01:04:54;;;;;;;11.00;1.85;;;;;;;10.46;100.00;100313.78;4955105;28;20097;-92
2022/09/13 01:07:26;;;;;;;1.77;1.02;;;;;;;10.46;100.00;100313.78;4937215;28;20031;-93
2022/09/13 01:09:55;;;;;;;7.05;1.85;;;;;;;10.47;100.00;100315.44;4943059;28;20129;-92
2022/09/13 01:13:03;;;;;;;10.00;2.05;;;;;;;10.40;100.00;100320.44;4957390;28;20026;-93
2022/09/13 01:15:36;;;;;;;6.60;1.38;;;;;;;10.43;100.00;100322.78;4934400;28;20494;-93
2022/09/13 01:18:39;;;;;;;6.15;1.30;;;;;;;10.35;100.00;100317.38;4945375;28;20073;-93
2022/09/13 01:21:42;;;;;;;7.40;1.50;;;;;;;10.40;100.00;100320.44;4945296;28;20083;-92
2022/09/13 01:24:55;;;;;;;5.35;1.23;;;;;;;10.38;100.00;100329.50;4946816;28;20038;-91
2022/09/13 01:27:39;;;;;;;5.95;1.20;;;;;;;10.36;100.00;100324.34;4937915;28;20388;-91
2022/09/13 01:30:19;;;;;;;5.45;1.17;;;;;;;10.36;100.00;100319.06;4955086;28;20039;-91
2022/09/13 01:33:10;;;;;;;8.63;1.45;;;;;;;10.38;100.00;100321.56;4950199;28;20023;-91
2022/09/13 01:35:51;;;;;;;6.95;1.27;;;;;;;10.37;100.00;100319.88;4952068;28;20049;-91
2022/09/13 01:38:20;;;;;;;6.93;1.30;;;;;;;10.28;100.00;100314.50;4939978;28;20042;-91
2022/09/13 01:41:01;;;;;;;4.70;1.30;;;;;;;10.18;100.00;100314.56;4932526;28;20065;-91
2022/09/13 01:43:57;;;;;;;4.47;1.00;;;;;;;10.11;100.00;100317.91;4941846;28;20486;-91
2022/09/13 01:47:05;;;;;;;6.70;1.38;;;;;;;10.06;100.00;100323.63;4923146;28;20039;-91
2022/09/13 01:49:59;;;;;;;7.78;1.10;;;;;;;10.11;100.00;100325.84;4932583;28;20051;-92
2022/09/13 01:52:40;;;;;;;3.22;1.20;;;;;;;10.14;100.00;100320.28;4943114;28;20042;-92
2022/09/13 01:55:31;;;;;;;6.10;1.38;;;;;;;10.11;100.00;100325.84;4949058;28;20034;-91
2022/09/13 01:58:20;;;;;;;4.15;1.13;;;;;;;9.98;100.00;100324.34;4943742;28;20034;-90
2022/09/13 02:01:09;;;;;;;4.00;1.27;;;;;;;9.88;100.00;100323.53;4957366;28;20084;-91
2022/09/13 02:03:59;;;;;;;7.25;1.52;;;;;;;9.78;100.00;100318.25;4939986;28;20479;-91
2022/09/13 02:06:31;;;;;;;8.05;1.27;;;;;;;9.73;100.00;100331.88;4930257;28;20176;-91
2022/09/13 02:09:00;;;;;;;6.20;1.42;;;;;;;9.71;100.00;100327.75;4943335;28;20490;-92
2022/09/13 02:11:27;;;;;;;7.78;1.52;;;;;;;9.63;100.00;100326.66;4943270;28;20031;-91
2022/09/13 02:14:00;;;;;;;2.22;0.98;;;;;;;9.64;100.00;100333.59;4930529;28;20061;-90
2022/09/13 02:16:42;;;;;;;7.00;1.45;;;;;;;9.61;100.00;100319.84;4939646;28;20045;-90
2022/09/13 02:19:18;;;;;;;3.85;1.00;;;;;;;9.62;100.00;100329.44;4940326;28;20031;-91
2022/09/13 02:21:50;;;;;;;3.05;1.10;;;;;;;9.58;100.00;100333.31;4938845;28;20041;-91
2022/09/13 02:24:28;;;;;;;7.60;1.27;;;;;;;9.52;100.00;100319.69;4940398;28;20034;-91
2022/09/13 02:26:57;;;;;;;5.35;0.98;;;;;;;9.53;100.00;100325.81;4936506;28;20573;-90
2022/09/13 02:29:27;;;;;;;3.92;1.05;;;;;;;9.53;100.00;100320.53;4932806;28;20433;-91
2022/09/13 02:32:09;;;;;;;5.30;1.20;;;;;;;9.48;100.00;100320.13;4968942;28;20553;-90
2022/09/13 02:34:40;;;;;;;6.30;1.33;;;;;;;9.45;100.00;100310.69;4939315;28;20486;-91
2022/09/13 02:37:09;;;;;;;7.78;1.10;;;;;;;9.42;100.00;100317.09;4973792;28;20042;-91
2022/09/13 02:39:40;;;;;;;8.02;1.15;;;;;;;9.43;100.00;100323.19;4937259;28;20038;-90
2022/09/13 02:42:19;;;;;;;4.50;1.20;;;;;;;9.50;100.00;100324.31;4940445;28;20035;-90
2022/09/13 02:44:49;;;;;;;2.85;1.00;;;;;;;9.53;100.00;100321.38;4942239;28;20072;-90
2022/09/13 02:47:33;;;;;;;10.95;1.20;;;;;;;9.52;100.00;100318.88;4935452;28;20125;-90
2022/09/13 02:50:28;;;;;;;6.28;1.25;;;;;;;9.51;100.00;100314.56;4938702;28;20058;-91
2022/09/13 02:53:12;;;;;;;10.82;1.20;;;;;;;9.53;100.00;100313.47;4947218;28;20054;-91
2022/09/13 02:55:44;;;;;;;9.80;1.50;;;;;;;9.57;100.00;100315.81;4938120;28;20039;-90
2022/09/13 02:58:48;;;;;;;6.45;1.10;;;;;;;9.57;100.00;100314.03;4929725;28;20070;-91
2022/09/13 03:01:14;;;;;;;3.45;1.00;;;;;;;9.52;100.00;100311.78;4967406;28;20105;-91
2022/09/13 03:03:40;;;;;;;5.57;1.17;;;;;;;9.45;100.00;100315.97;4939820;28;20038;-91
2022/09/13 03:06:07;;;;;;;8.77;1.45;;;;;;;9.36;100.00;100308.91;4940191;28;20026;-91
2022/09/13 03:08:33;;;;;;;5.40;1.00;;;;;;;9.36;100.00;100311.53;4937775;28;20125;-91
2022/09/13 03:11:02;;;;;;;6.07;1.30;;;;;;;9.33;100.00;100303.91;4941916;28;20132;-90
2022/09/13 03:13:29;;;;;;;7.53;1.15;;;;;;;9.29;100.00;100301.53;4940808;28;20054;-91
2022/09/13 03:16:22;;;;;;;7.97;1.40;;;;;;;9.28;100.00;100302.53;4945599;28;20045;-91
2022/09/13 03:19:08;;;;;;;6.88;1.13;;;;;;;9.24;100.00;100295.84;4950868;28;20038;-90
2022/09/13 03:21:42;;;;;;;5.60;1.20;;;;;;;9.20;100.00;100291.81;4956137;28;20050;-91
2022/09/13 03:24:30;;;;;;;9.15;1.58;;;;;;;9.17;100.00;100287.66;4961172;28;20034;-91
2022/09/13 03:27:08;;;;;;;5.75;0.98;;;;;;;9.19;100.00;100292.78;4943453;28;20056;-90
2022/09/13 03:29:43;;;;;;;3.63;1.10;;;;;;;9.16;100.00;100296.53;4939120;28;20038;-92
2022/09/13 03:32:27;;;;;;;6.63;1.10;;;;;;;9.17;100.00;100290.28;4961906;28;20042;-92
2022/09/13 03:35:30;;;;;;;6.50;1.42;;;;;;;9.16;100.00;100280.72;4946321;28;20053;-90
2022/09/13 03:38:14;;;;;;;5.07;1.00;;;;;;;9.20;100.00;100280.44;4949979;28;20038;-90
2022/09/13 03:41:15;;;;;;;5.55;1.08;;;;;;;9.24;100.00;100282.66;4943609;28;20042;-90
2022/09/13 03:44:04;;;;;;;1.75;0.60;;;;;;;9.24;100.00;100285.28;4933945;28;20054;-90
2022/09/13 03:46:46;;;;;;;3.50;1.10;;;;;;;9.32;100.00;100289.06;4940497;28;20046;-90
2022/09/13 03:49:15;;;;;;;11.02;1.10;;;;;;;9.37;100.00;100292.91;4935267;28;20498;-90
2022/09/13 03:51:47;;;;;;;5.97;0.73;;;;;;;9.47;100.00;100307.91;4930549;28;20041;-91
2022/09/13 03:54:43;;;;;;;3.33;0.90;;;;;;;9.50;100.00;100299.72;4943231;28;20038;-90
2022/09/13 03:57:19;;;;;;;7.32;0.77;;;;;;;9.53;100.00;100297.63;4919007;28;20030;-90
2022/09/13 03:59:54;;;;;;;2.80;0.80;;;;;;;9.54;100.00;100299.28;4956151;28;20034;-91
2022/09/13 04:02:22;;;;;;;6.90;1.15;;;;;;;9.61;100.00;100304.00;4942831;28;20932;-91
2022/09/13 04:04:49;;;;;;;5.50;0.60;;;;;;;9.62;100.00;100300.41;4947717;28;20069;-90
2022/09/13 04:07:18;;;;;;;5.75;1.25;;;;;;;9.59;100.00;100298.88;4945663;28;20121;-91
2022/09/13 04:09:44;;;;;;;3.53;0.60;;;;;;;9.61;100.00;100298.72;4944382;28;20093;-91
2022/09/13 04:12:13;;;;;;;2.58;0.57;;;;;;;9.62;100.00;100288.03;4933947;28;20517;-92
2022/09/13 04:14:39;;;;;;;5.40;0.75;;;;;;;9.61;100.00;100285.53;4942457;28;20487;-91
2022/09/13 04:17:06;;;;;;;4.45;0.60;;;;;;;9.54;100.00;100274.69;4944379;28;20037;-90
2022/09/13 04:19:32;;;;;;;4.53;0.98;;;;;;;9.56;100.00;100267.47;4949615;28;20481;-90
2022/09/13 04:21:58;;;;;;;4.53;0.52;;;;;;;9.59;100.00;100272.47;4953974;28;20039;-91
2022/09/13 04:24:26;;;;;;;3.80;1.00;;;;;;;9.60;100.00;100260.13;4938691;28;20429;-91
2022/09/13 04:26:53;;;;;;;5.50;0.80;;;;;;;9.60;100.00;100263.59;4935887;28;20042;-90
2022/09/13 04:29:20;;;;;;;4.32;0.70;;;;;;;9.64;100.00;100266.75;4938341;28;20034;-91
2022/09/13 04:31:46;;;;;;;3.38;0.55;;;;;;;9.64;100.00;100261.50;4937509;28;20038;-94
2022/09/13 04:34:13;;;;;;;5.18;0.73;;;;;;;9.65;100.00;100263.16;4955738;28;20045;-94
2022/09/13 04:36:39;;;;;;;10.63;0.90;;;;;;;9.67;100.00;100263.84;4940369;28;20034;-95
2022/09/13 04:39:06;;;;;;;2.15;0.68;;;;;;;9.70;100.00;100260.91;4938787;28;20093;-95
2022/09/13 04:41:33;;;;;;;8.70;0.90;;;;;;;9.73;100.00;100263.28;4942964;28;20031;-90
2022/09/13 04:44:00;;;;;;;3.75;0.60;;;;;;;9.68;100.00;100253.13;4952641;28;20132;-90
2022/09/13 04:46:27;;;;;;;4.40;0.70;;;;;;;9.70;100.00;100246.91;4948948;28;20030;-91
2022/09/13 04:48:53;;;;;;;1.52;0.68;;;;;;;9.71;100.00;100246.75;4941681;28;20491;-90
2022/09/13 04:51:20;;;;;;;4.05;0.88;;;;;;;9.79;100.00;100246.84;4943192;28;20159;-90
2022/09/13 04:53:54;;;;;;;1.85;0.82;;;;;;;9.81;100.00;100252.00;4941157;28;20039;-89
2022/09/13 04:56:23;;;;;;;4.82;0.77;;;;;;;9.88;100.00;100250.44;4940301;28;20077;-90
2022/09/13 04:58:50;;;;;;;3.35;0.80;;;;;;;9.92;100.00;100248.38;4955616;28;20034;-91
2022/09/13 05:01:16;;;;;;;3.33;0.77;;;;;;;9.95;100.00;100248.06;4941104;28;20038;-91
2022/09/13 05:03:42;;;;;;;5.43;0.82;;;;;;;9.94;100.00;100243.75;4941064;28;20581;-91
2022/09/13 05:06:13;;;;;;;5.45;0.60;;;;;;;9.97;100.00;100254.03;4943195;28;20089;-95
2022/09/13 05:08:43;;;;;;;4.38;0.75;;;;;;;9.99;100.00;100260.00;4936674;28;20048;-95
2022/09/13 05:11:12;;;;;;;2.90;0.65;;;;;;;9.98;100.00;100252.22;4943857;28;20112;-95
2022/09/13 05:13:38;;;;;;;5.13;0.70;;;;;;;9.96;100.00;100247.09;4943613;28;20037;-95
2022/09/13 05:16:06;;;;;;;1.95;0.73;;;;;;;10.01;100.00;100244.84;4955288;28;20558;-90
2022/09/13 05:18:35;;;;;;;7.40;0.50;;;;;;;10.04;100.00;100259.56;4940605;28;20042;-91
2022/09/13 05:21:03;;;;;;;3.92;0.55;;;;;;;10.02;100.00;100267.63;4940897;28;20039;-90
2022/09/13 05:23:30;;;;;;;1.73;0.50;;;;;;;10.01;100.00;100251.94;4947680;28;20069;-91
2022/09/13 05:26:02;;;;;;;2.63;0.45;;;;;;;10.03;100.00;100261.34;4938163;28;20038;-91
2022/09/13 05:28:29;;;;;;;4.88;0.70;;;;;;;10.01;100.00;100262.50;4932818;28;20062;-91
2022/09/13 05:30:58;;;;;;;3.20;0.50;;;;;;;9.98;100.00;100263.63;4944479;28;20113;-91
2022/09/13 05:33:26;;;;;;;5.30;1.10;;;;;;;9.97;100.00;100267.22;4935434;28;20069;-91
2022/09/13 05:35:52;;;;;;;3.22;0.75;;;;;;;9.91;100.00;100259.88;4942193;28;20128;-91
2022/09/13 05:38:18;;;;;;;2.58;0.60;;;;;;;9.98;100.00;100273.34;4941034;28;20041;-91
2022/09/13 05:40:45;;;;;;;4.95;0.90;;;;;;;9.93;100.00;100264.06;4944233;28;20038;-91
2022/09/13 05:43:11;;;;;;;4.03;0.85;;;;;;;9.92;100.00;100272.13;4944057;28;20487;-91
2022/09/13 05:45:37;;;;;;;8.57;0.90;;;;;;;9.86;100.00;100262.16;4956643;28;20038;-95
2022/09/13 05:48:03;;;;;;;2.70;0.63;;;;;;;9.82;100.00;100258.09;4957040;28;20045;-95
2022/09/13 05:50:29;;;;;;;6.75;1.15;;;;;;;9.83;100.00;100259.75;4948084;28;20041;-90
2022/09/13 05:52:55;;;;;;;2.78;0.43;;;;;;;9.80;100.00;100258.25;4943433;28;20495;-90
2022/09/13 05:55:22;;;;;;;3.40;0.70;;;;;;;9.82;100.00;100269.50;4945181;28;20026;-90
2022/09/13 05:57:49;;;;;;;4.00;0.65;;;;;;;9.78;100.00;100263.69;4942663;28;20030;-89
2022/09/13 06:00:15;;;;;;;4.03;0.70;;;;;;;9.75;100.00;100266.59;4944585;28;20065;-91
2022/09/13 06:02:44;;;;;;;4.53;0.90;;;;;;;9.74;100.00;100274.66;4939986;28;20038;-91
2022/09/13 06:05:10;;;;;;;7.13;0.80;;;;;;;9.73;100.00;100265.91;4956958;28;20491;-91
2022/09/13 06:07:40;;;;;;;3.47;0.80;;;;;;;9.75;100.00;100263.13;4954763;28;20038;-90
2022/09/13 06:10:07;;;;;;;4.13;0.68;;;;;;;9.67;100.00;100258.56;4942230;28;20279;-91
2022/09/13 06:12:51;;;;;;;6.18;0.75;;;;;;;9.70;100.00;100268.84;4965621;28;20038;-96
2022/09/13 06:15:29;;;;;;;2.42;0.52;;;;;;;9.73;100.00;100276.47;4970394;28;20097;-94
2022/09/13 06:17:55;;;;;;;10.33;0.93;;;;;;;9.69;100.00;100269.81;4920016;28;20039;-91
2022/09/13 06:20:25;;;;;;;3.92;0.77;;;;;;;9.67;100.00;100266.47;4954385;28;20495;-92
2022/09/13 06:22:56;;;;;;;4.68;0.70;;;;;;;9.71;100.00;100269.69;4933506;28;20073;-92
2022/09/13 06:25:23;;;;;;;6.25;0.90;;;;;;;9.82;100.00;100284.50;4941508;28;20517;-92
2022/09/13 06:27:49;;;;;;;6.65;0.90;;;;;;;9.86;100.00;100284.06;4940492;28;20101;-92
2022/09/13 06:30:18;;;;;;;5.47;1.20;;;;;;;9.90;100.00;100279.34;4933173;28;20027;-92
2022/09/13 06:32:46;;;;;;;2.65;0.50;;;;;;;9.98;100.00;100279.47;4935908;28;20034;-90
2022/09/13 06:35:12;;;;;;;5.93;0.75;;;;;;;9.87;100.00;100272.56;4941401;28;20037;-91
2022/09/13 06:37:38;;;;;;;6.53;1.10;;;;;;;9.85;100.00;100277.13;4940555;28;20038;-91
2022/09/13 06:40:05;;;;;;;3.65;0.60;;;;;;;9.93;100.00;100279.91;4940969;28;20038;-89
2022/09/13 06:42:38;;;;;;;4.00;0.52;;;;;;;9.88;100.00;100276.84;4944973;28;20072;-92
2022/09/13 06:45:05;;;;;;;6.07;0.70;;;;;;;9.85;100.00;100273.66;4941834;28;20101;-91
2022/09/13 06:47:34;;;;;;;2.53;0.68;;;;;;;9.87;100.00;100287.56;4949302;28;20046;-95
2022/09/13 06:50:20;;;;;;;3.50;0.73;;;;;;;9.92;100.00;100282.69;4944263;28;20050;-91
2022/09/13 06:52:46;;;;;;;4.55;0.93;;;;;;;9.96;100.00;100283.22;4937947;28;20086;-91
2022/09/13 06:55:12;;;;;;;5.15;0.80;;;;;;;10.03;100.00;100286.94;4936523;28;20062;-91
2022/09/13 06:57:38;;;;;;;5.30;0.73;;;;;;;10.16;100.00;100286.63;4939939;28;20113;-94
2022/09/13 07:00:07;;;;;;;4.70;0.90;;;;;;;10.29;100.00;100292.41;4937413;28;20069;-95
2022/09/13 07:02:34;;;;;;;7.88;1.05;;;;;;;10.33;100.00;100294.75;4939469;28;20490;-92
2022/09/13 07:05:00;;;;;;;4.72;0.85;;;;;;;10.34;100.00;100283.19;4938437;28;20055;-91
2022/09/13 07:07:26;;;;;;;6.55;0.63;;;;;;;10.31;100.00;100284.31;4943360;28;20046;-95
2022/09/13 07:09:59;;;;;;;2.45;0.70;;;;;;;10.31;100.00;100289.59;4941620;28;20113;-95
2022/09/13 07:12:25;;;;;;;6.68;1.40;;;;;;;10.31;100.00;100289.59;4939334;28;20034;-92
2022/09/13 07:14:52;;;;;;;10.10;1.30;;;;;;;10.32;100.00;100287.81;4932480;28;20039;-92
2022/09/13 07:17:18;;;;;;;5.13;1.08;;;;;;;10.38;100.00;100301.25;4936975;28;20043;-92
2022/09/13 07:19:44;;;;;;;5.82;1.00;;;;;;;10.43;100.00;100299.00;4938121;28;20100;-92
2022/09/13 07:22:10;;;;;;;3.95;0.70;;;;;;;10.57;100.00;100293.41;4936465;28;20046;-92
2022/09/13 07:24:36;;;;;;;2.80;0.70;;;;;;;10.59;100.00;100288.81;4956008;28;20057;-92
2022/09/13 07:27:02;;;;;;;5.32;0.98;;;;;;;10.66;100.00;100292.50;4932975;28;20051;-92
2022/09/13 07:29:28;;;;;;;5.70;0.80;;;;;;;10.70;100.00;100287.75;4924932;28;20038;-91
2022/09/13 07:31:55;;;;;;;1.80;0.70;;;;;;;10.72;100.00;100296.38;4955562;28;20027;-92
2022/09/13 07:34:23;;;;;;;5.85;1.00;;;;;;;10.81;100.00;100297.28;4939372;28;20092;-92
2022/09/13 07:36:49;;;;;;;4.43;1.10;;;;;;;10.88;100.00;100300.97;4954533;28;20098;-91
2022/09/13 07:39:16;;;;;;;5.70;1.17;;;;;;;10.91;100.00;100303.31;4944847;28;20045;-91
2022/09/13 07:41:42;;;;;;;4.40;1.10;;;;;;;10.98;100.00;100304.41;4938068;28;20045;-91
2022/09/13 07:44:10;;;;;;;2.63;0.60;;;;;;;10.99;100.00;100298.13;4937587;28;20034;-90
2022/09/13 07:46:42;;;;;;;4.55;1.15;;;;;;;11.05;100.00;100304.66;4950220;28;20031;-90
2022/09/13 07:49:10;;;;;;;4.50;1.15;;;;;;;11.12;100.00;100307.50;4952517;28;20045;-90
2022/09/13 07:51:38;;;;;;;3.13;0.63;;;;;;;11.18;100.00;100298.13;4940401;28;20639;-90
2022/09/13 07:54:08;;;;;;;1.58;0.70;;;;;;;11.28;100.00;100312.09;4932241;28;20038;-90
2022/09/13 07:56:36;;;;;;;3.17;0.50;;;;;;;11.24;100.00;100308.09;4929425;28;20488;-90
2022/09/13 07:59:05;;;;;;;2.20;0.57;;;;;;;11.25;100.00;100312.41;4928241;28;20042;-91
2022/09/13 08:01:37;;;;;;;6.82;1.65;;;;;;;11.27;100.00;100302.50;4926162;28;20046;-90
2022/09/13 08:04:06;;;;;;;6.93;0.60;;;;;;;11.34;100.00;100310.69;4921339;28;20117;-90
2022/09/13 08:06:33;;;;;;;4.20;0.85;;;;;;;11.40;100.00;100308.22;4925873;28;20533;-90
2022/09/13 08:09:00;;;;;;;1.67;0.60;;;;;;;11.46;100.00;100305.97;4925168;28;20105;-90
2022/09/13 08:11:29;;;;;;;3.50;0.60;;;;;;;11.53;100.00;100313.13;4924641;28;20059;-90
2022/09/13 08:13:56;;;;;;;2.85;0.65;;;;;;;11.60;100.00;100307.22;4922076;28;20121;-90
2022/09/13 08:16:23;;;;;;;2.65;0.73;;;;;;;11.66;100.00;100304.78;4920176;28;20027;-90
2022/09/13 08:18:52;;;;;;;1.48;0.40;;;;;;;11.66;100.00;100290.72;4925104;28;20042;-90
2022/09/13 08:21:19;;;;;;;5.82;1.02;;;;;;;11.79;100.00;100293.78;4933426;28;20455;-89
2022/09/13 08:23:45;;;;;;;5.28;0.90;;;;;;;11.86;100.00;100295.81;4930196;29;20039;-91
2022/09/13 08:26:14;;;;;;;4.15;0.60;;;;;;;12.00;100.00;100299.69;4942874;28;20049;-92
2022/09/13 08:28:41;;;;;;;3.65;0.63;;;;;;;12.05;100.00;100297.41;4941963;28;20037;-92
2022/09/13 08:31:16;;;;;;;4.63;0.70;;;;;;;12.08;100.00;100288.34;4927472;28;20126;-91
2022/09/13 08:33:44;;;;;;;4.68;0.68;;;;;;;12.17;100.00;100292.69;4921822;29;20027;-92
2022/09/13 08:36:12;;;;;;;5.55;0.80;;;;;;;12.17;100.00;100286.56;4943144;28;20039;-91
2022/09/13 08:38:38;;;;;;;5.03;1.00;;;;;;;12.24;100.00;100284.94;4916692;28;20039;-90
2022/09/13 08:41:31;;;;;;;3.47;0.65;;;;;;;12.24;100.00;100290.25;4943534;28;20035;-91
2022/09/13 08:44:03;;;;;;;3.60;0.60;;;;;;;12.34;100.00;100284.81;4924417;29;20043;-91
2022/09/13 08:46:36;;;;;;;5.60;0.90;;;;;;;12.40;100.00;100287.66;4922885;28;20042;-92
2022/09/13 08:49:11;;;;;;;4.30;0.82;;;;;;;12.51;100.00;100294.50;4927157;28;20027;-91
2022/09/13 08:51:40;;;;;;;;;;;;;;;12.48;100.00;100286.03;4912107;28;20320;-89
2022/09/13 08:54:15;;;;;;;4.20;0.55;;;;;;;12.54;100.00;100285.38;4938737;29;19957;-90
2022/09/13 08:57:11;;;;;;;3.95;0.63;;;;;;;12.50;100.00;100284.84;4912359;28;20051;-94
2022/09/13 08:59:50;;;;;;;6.40;0.70;;;;;;;12.57;100.00;100278.91;4914869;29;20040;-93
2022/09/13 09:02:38;;;;;;;3.53;0.45;;;;;;;12.57;100.00;100285.06;4896338;29;20056;-90
2022/09/13 09:05:18;;;;;;;2.90;0.77;;;;;;;12.64;100.00;100279.94;4920725;29;20039;-91
2022/09/13 09:07:57;;;;;;;3.50;0.50;;;;;;;12.78;100.00;100278.47;4907654;29;20062;-92
2022/09/13 09:10:29;;;;;;;5.65;0.68;;;;;;;12.76;100.00;100281.28;4938199;29;20532;-91
2022/09/13 09:13:02;;;;;;;6.65;0.85;;;;;;;12.71;100.00;100272.97;4903553;29;20044;-91
2022/09/13 09:15:34;;;;;;;5.03;0.90;;;;;;;12.77;100.00;100277.63;4901223;29;20044;-93
2022/09/13 09:18:12;;;;;;;4.93;0.90;;;;;;;12.92;100.00;100281.47;4915226;29;20039;-93
2022/09/13 09:20:54;;;;;;;10.30;0.93;;;;;;;12.98;100.00;100279.00;4890045;29;20032;-93
2022/09/13 09:23:23;;;;;;;7.72;1.00;;;;;;;13.14;100.00;100277.34;4879248;29;20115;-94
2022/09/13 09:25:55;;;;;;;2.42;0.68;;;;;;;13.21;100.00;100281.00;4899464;29;20047;-92
2022/09/13 09:28:21;;;;;;;3.45;0.80;;;;;;;13.22;100.00;100284.50;4918230;29;20640;-92
2022/09/13 09:31:07;;;;;;;5.55;0.73;;;;;;;13.24;100.00;100288.63;4904904;29;20344;-92
2022/09/13 09:33:53;;;;;;;4.28;0.75;;;;;;;13.37;100.00;100295.25;4909939;29;20054;-85
2022/09/13 09:36:39;;;;;;;4.65;0.98;;;;;;;13.37;99.00;100289.97;4905917;29;20131;-93
2022/09/13 09:39:10;;;;;;;4.97;0.80;;;;;;;13.45;100.00;100292.63;4900370;29;20052;-92
2022/09/13 09:41:37;;;;;;;6.13;0.88;;;;;;;13.46;99.14;100298.72;4909886;29;20035;-92
2022/09/13 09:44:06;;;;;;;4.53;1.05;;;;;;;13.45;97.83;100283.81;4888105;29;20050;-92
2022/09/13 09:46:36;;;;;;;6.30;0.70;;;;;;;13.39;97.37;100302.06;4904674;29;20035;-92
2022/09/13 09:52:21;;;;;;;5.30;0.82;;;;;;;13.60;98.27;100284.00;4933845;29;20036;-94
2022/09/13 09:54:49;;;;;;;4.28;0.88;;;;;;;13.63;98.07;100297.75;4919196;29;20381;-93
2022/09/13 09:57:19;;;;;;;8.77;1.30;;;;;;;13.67;97.57;100300.06;4898330;29;20051;-91
2022/09/13 09:59:45;;;;;;;3.75;0.73;;;;;;;13.71;97.70;100302.22;4844786;29;20140;-91
2022/09/13 10:02:20;;;;;;;8.85;0.70;;;;;;;13.79;97.26;100303.22;4864482;29;20040;-93
2022/09/13 10:04:58;;;;;;;6.18;0.68;;;;;;;13.84;96.13;100293.72;4864729;29;20037;-93
2022/09/13 10:07:33;;;;;;;5.95;0.73;;;;;;;13.93;96.06;100294.56;4864613;29;20053;-92
2022/09/13 10:10:19;;;;;;;3.80;0.65;;;;;;;13.98;95.03;100284.22;4874920;29;20484;-89
2022/09/13 10:12:50;;;;;;;5.22;0.95;;;;;;;14.12;95.76;100296.00;4879070;29;20057;-93
2022/09/13 10:15:23;;;;;;;4.45;0.93;;;;;;;14.20;95.02;100295.13;4862774;29;20036;-92
2022/09/13 10:18:04;;;;;;;9.25;1.00;;;;;;;13.96;89.99;100293.38;4867213;29;20101;-91
2022/09/13 10:20:31;;;;;;;7.13;1.00;;;;;;;13.93;93.87;100297.22;4862098;29;20048;-92
2022/09/13 10:23:14;;;;;;;4.88;1.17;;;;;;;13.93;93.56;100304.34;4865135;29;20036;-92
2022/09/13 10:25:43;;;;;;;7.13;0.80;;;;;;;13.94;94.66;100298.03;4883642;29;20067;-92
2022/09/13 10:28:16;;;;;;;8.13;1.63;;;;;;;14.07;94.40;100306.31;4864960;29;20385;-92
2022/09/13 10:30:52;;;;;;;4.70;0.80;;;;;;;14.07;94.45;100298.34;4859936;29;20176;-90
2022/09/13 10:33:29;;;;;;;;;;;;;;;13.99;93.35;100301.00;4862472;29;20127;-91
2022/09/13 10:35:59;;;;;;;8.75;1.70;;;;;;;14.12;94.85;100298.66;4847153;29;19916;-93
2022/09/13 10:38:30;;;;;;;3.60;1.30;;;;;;;14.15;94.46;100302.78;4848814;29;20071;-93
2022/09/13 10:40:58;;;;;;;7.93;1.02;;;;;;;14.11;94.07;100296.16;4850564;29;20050;-93
2022/09/13 10:43:27;;;;;;;3.10;0.85;;;;;;;14.02;93.46;100304.16;4862511;29;20047;-92
2022/09/13 10:45:54;;;;;;;5.68;1.20;;;;;;;14.01;93.91;100307.81;4889003;29;20451;-92
2022/09/13 10:48:20;;;;;;;4.38;1.20;;;;;;;14.01;93.21;100307.00;4862778;29;20080;-92
2022/09/13 10:51:04;;;;;;;11.25;2.20;;;;;;;14.03;93.09;100302.31;4850246;29;20532;-93
2022/09/13 10:53:36;;;;;;;2.33;0.70;;;;;;;14.00;93.42;100305.31;4865872;29;20426;-92
2022/09/13 10:56:03;;;;;;;4.97;0.95;;;;;;;13.97;92.76;100314.47;4887481;29;20041;-92
2022/09/13 10:58:29;;;;;;;3.30;0.80;;;;;;;14.08;93.60;100317.78;4850534;29;20044;-91
2022/09/13 11:01:14;;;;;;;7.13;1.10;;;;;;;14.11;92.59;100294.31;4855644;29;20066;-91
2022/09/13 11:04:01;;;;;;;3.72;0.70;;;;;;;14.31;92.81;100296.59;4850323;29;20048;-91
2022/09/13 11:06:45;;;;;;;10.20;1.25;;;;;;;14.51;92.62;100288.16;4873104;29;20490;-92
2022/09/13 11:09:29;;;;;;;3.58;1.13;;;;;;;14.63;92.37;100288.63;4868274;29;20052;-90
2022/09/13 11:12:01;;;;;;;5.20;1.25;;;;;;;14.69;91.61;100287.06;4866187;29;20128;-91
2022/09/13 11:14:52;;;;;;;6.03;1.45;;;;;;;14.72;90.86;100282.25;4862634;29;20062;-91
2022/09/13 11:17:18;;;;;;;3.35;1.30;;;;;;;14.70;91.38;100286.09;4834118;29;20028;-92
2022/09/13 11:20:06;;;;;;;9.30;1.45;;;;;;;14.72;91.51;100279.59;4843637;29;20054;-92
2022/09/13 11:22:34;;;;;;;5.22;1.50;;;;;;;14.76;92.26;100278.22;4873546;29;20037;-92
2022/09/13 11:25:34;;;;;;;3.60;0.93;;;;;;;14.71;91.22;100282.41;4897249;29;20044;-92
2022/09/13 11:28:45;;;;;;;4.95;1.13;;;;;;;14.66;91.30;100282.94;4878766;29;20056;-91
2022/09/13 11:31:41;;;;;;;5.72;1.60;;;;;;;14.54;90.77;100284.34;4865943;29;20044;-92
2022/09/13 11:34:42;;;;;;;5.45;1.63;;;;;;;14.55;91.58;100273.53;4877013;29;20049;-93
2022/09/13 11:37:47;;;;;;;5.35;0.90;;;;;;;14.51;89.96;100264.22;4859156;29;20032;-92
2022/09/13 11:40:28;;;;;;;5.78;0.93;;;;;;;14.58;90.53;100267.03;4884583;29;20175;-92
2022/09/13 11:43:17;;;;;;;8.98;1.48;;;;;;;14.64;90.42;100261.84;4868788;29;20057;-92
2022/09/13 11:46:05;;;;;;;8.15;1.40;;;;;;;14.71;87.04;100261.13;4897749;23;20031;-96
2022/09/13 11:49:02;;;;;;;3.75;0.98;;;;;;;14.68;86.50;100256.16;4880157;29;20087;-96
2022/09/13 11:51:50;;;;;;;;;;;;;;;14.44;85.69;100263.28;4960920;24;20732;-91
2022/09/13 11:55:07;;;;;;;4.18;1.30;;;;;;;14.54;88.01;100253.25;4863737;29;19923;-91
2022/09/13 11:57:44;;;;;;;4.15;1.20;;;;;;;14.52;88.68;100258.75;4798915;29;20144;-91